createdAt,value
2022-10-09T04:05:28.756Z,714.60
2022-10-09T04:07:55.155Z,712.50
2022-10-09T04:10:21.533Z,715.97
2022-10-09T04:12:48.198Z,719.27
2022-10-09T04:15:14.778Z,712.03
2022-10-09T04:17:41.186Z,725.77
2022-10-09T04:20:07.602Z,723.57
2022-10-09T04:22:34.002Z,719.67
2022-10-09T04:25:00.439Z,712.57
2022-10-09T04:27:26.846Z,726.97
2022-10-09T04:29:53.268Z,722.00
2022-10-09T04:32:19.673Z,721.37
2022-10-09T04:34:46.056Z,716.13
2022-10-09T04:37:12.465Z,714.83
2022-10-09T04:39:38.863Z,730.87
2022-10-09T04:42:05.254Z,722.03
2022-10-09T04:44:31.646Z,725.70
2022-10-09T04:46:58.039Z,716.10
2022-10-09T04:49:24.430Z,725.57
2022-10-09T04:51:50.834Z,717.93
2022-10-09T04:54:17.218Z,715.83
2022-10-09T04:56:43.624Z,717.80
2022-10-09T04:59:10.097Z,722.73
2022-10-09T05:01:38.562Z,720.80
2022-10-09T05:04:05.183Z,722.23
2022-10-09T05:06:31.580Z,725.10
2022-10-09T05:08:57.966Z,714.23
2022-10-09T05:11:24.374Z,721.30
2022-10-09T05:13:50.769Z,720.77
2022-10-09T05:16:17.195Z,734.07
2022-10-09T05:18:43.666Z,718.07
2022-10-09T05:21:10.058Z,716.63
2022-10-09T05:23:36.480Z,712.53
2022-10-09T05:26:02.859Z,721.60
2022-10-09T05:28:29.270Z,714.97
2022-10-09T05:30:55.748Z,726.43
2022-10-09T05:33:22.153Z,720.53
2022-10-09T05:35:48.610Z,718.67
2022-10-09T05:38:15.020Z,716.43
2022-10-09T05:40:41.408Z,724.13
2022-10-09T05:43:07.800Z,718.93
2022-10-09T05:45:34.282Z,719.57
2022-10-09T05:48:00.704Z,721.10
2022-10-09T05:50:27.087Z,717.57
2022-10-09T05:52:53.495Z,718.77
2022-10-09T05:55:20.107Z,721.27
2022-10-09T05:57:46.505Z,722.37
2022-10-09T06:00:12.894Z,721.17
2022-10-09T06:02:39.375Z,717.73
2022-10-09T06:05:05.824Z,719.87
2022-10-09T06:07:32.235Z,717.17
2022-10-09T06:09:58.608Z,719.37
2022-10-09T06:12:25.013Z,716.00
2022-10-09T06:14:51.393Z,720.83
2022-10-09T06:17:17.810Z,729.73
2022-10-09T06:19:44.192Z,717.90
2022-10-09T06:22:10.610Z,720.03
2022-10-09T06:24:37.023Z,720.67
2022-10-09T06:27:03.414Z,729.77
2022-10-09T06:29:29.804Z,717.33
2022-10-09T06:31:56.300Z,728.40
2022-10-09T06:34:22.693Z,716.73
2022-10-09T06:36:49.104Z,720.50
2022-10-09T06:39:15.495Z,720.37
2022-10-09T06:41:41.931Z,719.30
2022-10-09T06:44:10.820Z,720.93
2022-10-09T06:46:40.461Z,720.23
2022-10-09T06:49:06.850Z,723.77
2022-10-09T06:51:33.252Z,726.43
2022-10-09T06:53:59.691Z,718.43
2022-10-09T06:56:26.114Z,711.87
2022-10-09T06:58:52.535Z,682.17
2022-10-09T07:01:19.088Z,672.73
2022-10-09T07:03:45.555Z,657.73
2022-10-09T07:06:11.942Z,662.53
2022-10-09T07:08:38.345Z,660.97
2022-10-09T07:11:04.729Z,659.00
2022-10-09T07:13:31.122Z,660.13
2022-10-09T07:16:01.321Z,655.63
2022-10-09T07:18:30.354Z,658.83
2022-10-09T07:20:56.729Z,664.30
2022-10-09T07:23:23.134Z,660.93
2022-10-09T07:25:49.560Z,663.63
2022-10-09T07:28:16.016Z,670.00
2022-10-09T07:30:42.497Z,668.47
2022-10-09T07:33:08.978Z,673.40
2022-10-09T07:35:35.384Z,681.70
2022-10-09T07:38:01.819Z,677.63
2022-10-09T07:40:28.223Z,680.13
2022-10-09T07:42:54.622Z,680.30
2022-10-09T07:45:21.010Z,675.63
2022-10-09T07:47:47.452Z,679.93
2022-10-09T07:50:13.834Z,677.03
2022-10-09T07:52:40.250Z,686.63
2022-10-09T07:55:06.636Z,675.47
2022-10-09T07:57:33.046Z,678.83
2022-10-09T08:00:00.388Z,674.97
2022-10-09T08:02:26.851Z,677.13
2022-10-09T08:04:53.290Z,676.40
2022-10-09T08:07:19.712Z,676.57
2022-10-09T08:09:46.116Z,673.73
2022-10-09T08:12:12.516Z,672.53
2022-10-09T08:14:38.951Z,678.77
2022-10-09T08:17:05.355Z,676.87
2022-10-09T08:19:31.748Z,675.30
2022-10-09T08:22:01.313Z,678.77
2022-10-09T08:24:29.775Z,675.07
2022-10-09T08:26:56.183Z,679.33
2022-10-09T08:29:22.561Z,677.13
2022-10-09T08:31:48.972Z,678.03
2022-10-09T08:34:15.361Z,680.23
2022-10-09T08:36:41.760Z,672.53
2022-10-09T08:39:08.147Z,683.90
2022-10-09T08:41:34.603Z,673.07
2022-10-09T08:44:01.007Z,676.47
2022-10-09T08:46:27.479Z,673.47
2022-10-09T08:48:53.896Z,670.97
2022-10-09T08:51:20.289Z,677.57
2022-10-09T08:53:46.688Z,685.13
2022-10-09T08:56:13.200Z,678.33
2022-10-09T08:58:39.612Z,687.97
2022-10-09T09:01:06.011Z,686.77
2022-10-09T09:03:32.401Z,675.93
2022-10-09T09:05:58.794Z,681.13
2022-10-09T09:08:25.183Z,678.20
2022-10-09T09:10:51.566Z,683.13
2022-10-09T09:13:17.980Z,686.90
2022-10-09T09:15:44.472Z,681.40
2022-10-09T09:18:10.977Z,684.87
2022-10-09T09:20:37.417Z,682.00
2022-10-09T09:23:03.823Z,676.93
2022-10-09T09:25:30.198Z,679.07
2022-10-09T09:27:56.632Z,679.07
2022-10-09T09:30:23.024Z,674.73
2022-10-09T09:32:49.683Z,684.07
2022-10-09T09:35:16.346Z,682.73
2022-10-09T09:37:42.772Z,680.63
2022-10-09T09:40:35.682Z,677.27
2022-10-09T09:42:55.516Z,682.00
2022-10-09T09:45:21.911Z,681.93
2022-10-09T09:47:48.611Z,692.17
2022-10-09T09:50:35.208Z,679.77
2022-10-09T09:53:01.537Z,687.50
2022-10-09T09:55:27.971Z,674.17
2022-10-09T09:57:54.471Z,683.57
2022-10-09T10:00:20.852Z,682.87
2022-10-09T10:02:47.562Z,682.73
2022-10-09T10:05:14.208Z,681.73
2022-10-09T10:07:40.615Z,695.03
2022-10-09T10:10:07.006Z,689.50
2022-10-09T10:12:33.415Z,686.77
2022-10-09T10:14:59.818Z,682.23
2022-10-09T10:17:26.438Z,686.67
2022-10-09T10:19:52.816Z,686.40
2022-10-09T10:22:19.230Z,684.10
2022-10-09T10:24:45.699Z,683.17
2022-10-09T10:27:12.137Z,689.73
2022-10-09T10:29:38.516Z,688.20
2022-10-09T10:32:04.917Z,687.83
2022-10-09T10:34:31.318Z,682.87
2022-10-09T10:37:02.549Z,698.67
2022-10-09T10:39:29.892Z,684.97
2022-10-09T10:41:56.287Z,683.93
2022-10-09T10:44:22.662Z,705.97
2022-10-09T10:46:49.211Z,710.27
2022-10-09T10:49:15.683Z,691.03
2022-10-09T10:51:42.078Z,684.20
2022-10-09T10:54:08.480Z,687.63
2022-10-09T10:56:34.862Z,686.60
2022-10-09T10:59:01.270Z,684.40
2022-10-09T11:01:27.716Z,738.53
2022-10-09T11:03:54.148Z,683.80
2022-10-09T11:06:20.530Z,681.93
2022-10-09T11:08:46.929Z,689.03
2022-10-09T11:11:13.326Z,686.10
2022-10-09T11:13:39.723Z,684.67
2022-10-09T11:16:06.308Z,681.50
2022-10-09T11:18:32.808Z,692.13
2022-10-09T11:20:59.199Z,685.57
2022-10-09T11:23:25.596Z,686.73
2022-10-09T11:25:51.983Z,682.43
2022-10-09T11:28:18.444Z,681.97
2022-10-09T11:30:44.887Z,692.27
2022-10-09T11:33:11.301Z,683.53
2022-10-09T11:35:37.685Z,679.03
2022-10-09T11:38:04.091Z,688.20
2022-10-09T11:40:30.559Z,681.93
2022-10-09T11:42:56.961Z,683.17
2022-10-09T11:45:23.384Z,686.33
2022-10-09T11:47:50.011Z,691.77
2022-10-09T11:50:16.605Z,682.60
2022-10-09T11:52:43.003Z,680.20
2022-10-09T11:55:09.385Z,685.77
2022-10-09T11:57:35.777Z,682.77
2022-10-09T12:00:02.162Z,686.73
2022-10-09T12:02:28.635Z,683.63
2022-10-09T12:04:55.744Z,679.93
2022-10-09T12:07:22.330Z,685.10
2022-10-09T12:09:48.720Z,685.27
2022-10-09T12:12:15.117Z,681.17
2022-10-09T12:14:41.579Z,679.33
2022-10-09T12:17:07.962Z,686.67
2022-10-09T12:19:34.377Z,677.87
2022-10-09T12:22:00.933Z,683.57
2022-10-09T12:24:27.338Z,678.70
2022-10-09T12:26:54.163Z,691.13
2022-10-09T12:29:20.559Z,738.70
2022-10-09T12:31:47.012Z,680.77
2022-10-09T12:34:13.401Z,690.17
2022-10-09T12:36:39.824Z,682.07
2022-10-09T12:39:06.216Z,692.87
2022-10-09T12:41:32.673Z,683.93
2022-10-09T12:43:59.066Z,687.67
2022-10-09T12:46:25.534Z,683.17
2022-10-09T12:48:51.957Z,690.67
2022-10-09T12:51:18.351Z,731.63
2022-10-09T12:53:44.734Z,691.63
2022-10-09T12:56:11.139Z,725.73
2022-10-09T12:58:37.600Z,692.27
2022-10-09T13:01:04.145Z,697.27
2022-10-09T13:03:30.630Z,739.10
2022-10-09T13:05:57.048Z,751.83
2022-10-09T13:08:23.459Z,736.23
2022-10-09T13:10:49.883Z,688.23
2022-10-09T13:13:16.284Z,697.07
2022-10-09T13:15:42.686Z,682.60
2022-10-09T13:18:09.153Z,685.10
2022-10-09T13:20:35.558Z,699.37
2022-10-09T13:23:01.985Z,688.20
2022-10-09T13:25:28.371Z,686.47
2022-10-09T13:27:54.772Z,694.67
2022-10-09T13:30:21.239Z,698.57
2022-10-09T13:32:47.622Z,689.97
2022-10-09T13:35:14.057Z,694.03
2022-10-09T13:37:40.472Z,685.57
2022-10-09T13:40:06.864Z,684.63
2022-10-09T13:42:33.276Z,690.67
2022-10-09T13:44:59.685Z,686.60
2022-10-09T13:47:26.100Z,687.60
2022-10-09T13:49:52.508Z,687.83
2022-10-09T13:52:19.042Z,682.37
2022-10-09T13:54:45.488Z,682.77
2022-10-09T13:57:11.895Z,683.83
2022-10-09T13:59:38.299Z,684.87
2022-10-09T14:02:04.749Z,687.07
2022-10-09T14:04:31.144Z,685.23
2022-10-09T14:06:57.572Z,686.60
2022-10-09T14:09:23.960Z,688.33
2022-10-09T14:11:50.362Z,691.53
2022-10-09T14:14:16.763Z,689.33
2022-10-09T14:16:43.198Z,684.70
2022-10-09T14:19:09.628Z,689.00
2022-10-09T14:21:36.056Z,685.20
2022-10-09T14:24:02.457Z,687.33
2022-10-09T14:26:28.880Z,690.80
2022-10-09T14:28:55.303Z,688.60
2022-10-09T14:31:21.688Z,684.47
2022-10-09T14:33:48.079Z,689.47
2022-10-09T14:36:14.474Z,692.03
2022-10-09T14:38:40.882Z,688.83
2022-10-09T14:41:07.283Z,685.17
2022-10-09T14:43:33.689Z,689.17
2022-10-09T14:46:00.092Z,690.23
2022-10-09T14:48:26.486Z,691.57
2022-10-09T14:50:52.878Z,687.93
2022-10-09T14:53:19.290Z,685.30
2022-10-09T14:55:45.699Z,685.60
2022-10-09T14:58:12.153Z,693.13
2022-10-09T15:00:38.604Z,688.83
2022-10-09T15:03:05.037Z,683.97
2022-10-09T15:05:31.445Z,688.97
2022-10-09T15:07:57.854Z,681.40
2022-10-09T15:10:24.262Z,692.93
2022-10-09T15:12:50.811Z,687.63
2022-10-09T15:15:17.215Z,681.30
2022-10-09T15:17:43.637Z,682.90
2022-10-09T15:20:10.033Z,686.80
2022-10-09T15:22:36.447Z,691.40
2022-10-09T15:25:02.841Z,690.47
2022-10-09T15:27:29.254Z,691.63
2022-10-09T15:29:55.646Z,691.57
2022-10-09T15:32:22.051Z,687.20
2022-10-09T15:34:48.447Z,689.30
2022-10-09T15:37:14.830Z,691.53
2022-10-09T15:39:41.232Z,689.57
2022-10-09T15:42:07.704Z,684.63
2022-10-09T15:44:34.102Z,689.70
2022-10-09T15:47:00.505Z,691.03
2022-10-09T15:49:26.883Z,687.43
2022-10-09T15:51:53.250Z,692.43
2022-10-09T15:54:19.671Z,686.33
2022-10-09T15:56:46.246Z,695.67
2022-10-09T15:59:12.868Z,697.97
2022-10-09T16:01:39.298Z,709.20
2022-10-09T16:04:05.741Z,699.87
2022-10-09T16:06:32.137Z,747.07
2022-10-09T16:08:58.572Z,693.60
2022-10-09T16:11:26.507Z,696.67
2022-10-09T16:13:53.308Z,697.17
2022-10-09T16:16:20.058Z,701.83
2022-10-09T16:18:46.471Z,691.37
2022-10-09T16:21:12.868Z,690.40
2022-10-09T16:23:39.283Z,692.77
2022-10-09T16:26:05.683Z,695.30
2022-10-09T16:28:32.150Z,695.77
2022-10-09T16:30:58.693Z,687.93
2022-10-09T16:33:25.087Z,696.37
2022-10-09T16:35:51.482Z,698.00
2022-10-09T16:38:17.891Z,684.23
2022-10-09T16:43:30.699Z,689.03
2022-10-09T16:45:57.120Z,693.33
2022-10-09T16:48:23.532Z,698.47
2022-10-09T16:50:49.920Z,683.37
2022-10-09T16:53:16.341Z,688.03
2022-10-09T16:55:42.719Z,695.17
2022-10-09T16:58:09.106Z,688.63
2022-10-09T17:00:35.525Z,693.50
2022-10-09T17:03:01.951Z,687.70
2022-10-09T17:05:28.350Z,689.70
2022-10-09T17:07:54.767Z,693.40
2022-10-09T17:10:21.163Z,689.80
2022-10-09T17:12:47.567Z,691.83
2022-10-09T17:15:13.967Z,695.97
2022-10-09T17:17:40.404Z,693.00
2022-10-09T17:20:06.803Z,693.33
2022-10-09T17:22:33.208Z,696.20
2022-10-09T17:24:59.618Z,697.73
2022-10-09T17:27:26.017Z,688.93
2022-10-09T17:29:52.430Z,696.47
2022-10-09T17:32:18.863Z,692.97
2022-10-09T17:34:45.290Z,693.23
2022-10-09T17:37:11.725Z,692.73
2022-10-09T17:39:38.119Z,697.70
2022-10-09T17:42:04.524Z,693.87
2022-10-09T17:44:30.915Z,698.77
2022-10-09T17:46:57.316Z,696.13
2022-10-09T17:49:23.693Z,695.53
2022-10-09T17:51:50.103Z,696.90
2022-10-09T17:54:16.512Z,686.60
2022-10-09T17:56:42.913Z,699.73
2022-10-09T17:59:09.301Z,693.97
2022-10-09T18:01:35.759Z,699.30
2022-10-09T18:04:02.230Z,699.20
2022-10-09T18:06:28.688Z,704.60
2022-10-09T18:08:55.074Z,704.27
2022-10-09T18:11:21.491Z,690.17
2022-10-09T18:13:47.890Z,694.43
2022-10-09T18:16:14.478Z,701.97
2022-10-09T18:18:40.887Z,693.90
2022-10-09T18:21:07.302Z,696.93
2022-10-09T18:23:33.710Z,693.43
2022-10-09T18:26:00.132Z,693.97
2022-10-09T18:30:53.850Z,693.33
2022-10-09T18:33:20.268Z,691.30
2022-10-09T18:35:46.706Z,689.70
2022-10-09T18:38:13.092Z,692.53
2022-10-09T18:40:44.539Z,690.10
2022-10-09T18:43:11.896Z,694.57
2022-10-09T18:45:38.304Z,697.63
2022-10-09T18:48:04.715Z,697.07
2022-10-09T18:50:31.180Z,690.33
2022-10-09T18:52:57.619Z,693.80
2022-10-09T18:55:24.020Z,685.90
2022-10-09T18:57:50.436Z,694.93
2022-10-09T19:00:16.827Z,694.13
2022-10-09T19:02:43.280Z,691.70
2022-10-09T19:05:09.671Z,695.07
2022-10-09T19:07:36.097Z,693.77
2022-10-09T19:10:02.496Z,702.47
2022-10-09T19:12:28.939Z,689.13
2022-10-09T19:14:55.474Z,699.93
2022-10-09T19:17:21.901Z,693.93
2022-10-09T19:19:48.297Z,697.33
2022-10-09T19:22:17.376Z,702.07
2022-10-09T19:24:45.446Z,702.07
2022-10-09T19:27:11.869Z,696.00
2022-10-09T19:29:38.264Z,699.97
2022-10-09T19:32:04.729Z,699.00
2022-10-09T19:34:31.117Z,689.80
2022-10-09T19:36:59.836Z,695.27
2022-10-09T19:39:26.293Z,690.73
2022-10-09T19:41:52.697Z,699.43
2022-10-09T19:44:19.078Z,693.30
2022-10-09T19:46:45.684Z,693.63
2022-10-09T19:49:12.084Z,701.07
2022-10-09T19:51:38.518Z,697.43
2022-10-09T19:54:04.921Z,702.97
2022-10-09T19:56:31.332Z,702.77
2022-10-09T19:58:57.740Z,702.63
2022-10-09T20:01:24.197Z,702.17
2022-10-09T20:03:50.618Z,697.80
2022-10-09T20:06:17.082Z,704.23
2022-10-09T20:08:43.539Z,698.30
2022-10-09T20:11:10.046Z,695.37
2022-10-09T20:13:36.489Z,697.67
2022-10-09T20:16:02.942Z,697.23
2022-10-09T20:18:29.333Z,693.27
2022-10-09T20:20:55.758Z,698.77
2022-10-09T20:23:22.162Z,699.33
2022-10-09T20:25:48.594Z,696.13
2022-10-09T20:28:15.079Z,703.17
2022-10-09T20:30:41.529Z,694.13
2022-10-09T20:33:07.952Z,700.60
2022-10-09T20:35:34.353Z,701.37
2022-10-09T20:38:00.783Z,700.77
2022-10-09T20:40:27.186Z,701.77
2022-10-09T20:42:53.802Z,694.73
2022-10-09T20:45:20.320Z,699.73
2022-10-09T20:47:46.866Z,707.17
2022-10-09T20:50:13.262Z,694.03
2022-10-09T20:52:39.688Z,700.80
2022-10-09T20:55:06.083Z,700.40
2022-10-09T20:57:32.511Z,693.50
2022-10-09T20:59:58.920Z,694.53
2022-10-09T21:02:25.341Z,699.53
2022-10-09T21:04:51.732Z,700.57
2022-10-09T21:07:18.169Z,699.53
2022-10-09T21:09:44.572Z,699.47
2022-10-09T21:12:11.123Z,698.73
2022-10-09T21:14:37.519Z,700.47
2022-10-09T21:17:03.946Z,702.10
2022-10-09T21:19:30.343Z,698.87
2022-10-09T21:21:56.779Z,695.83
2022-10-09T21:24:23.188Z,697.63
2022-10-09T21:26:49.784Z,697.77
2022-10-09T21:29:16.179Z,696.27
2022-10-09T21:31:42.574Z,694.90
2022-10-09T21:34:08.987Z,696.37
2022-10-09T21:36:35.404Z,696.20
2022-10-09T21:39:01.788Z,690.90
2022-10-09T21:41:28.205Z,696.53
2022-10-09T21:43:54.681Z,704.20
2022-10-09T21:46:21.091Z,711.60
2022-10-09T21:48:47.486Z,704.50
2022-10-09T21:51:13.903Z,698.30
2022-10-09T21:53:40.287Z,703.07
2022-10-09T21:56:06.720Z,697.23
2022-10-09T21:58:33.110Z,701.17
2022-10-09T22:00:59.540Z,702.23
2022-10-09T22:03:25.985Z,692.43
2022-10-09T22:05:52.371Z,694.30
2022-10-09T22:08:18.766Z,694.20
2022-10-09T22:10:45.153Z,697.10
2022-10-09T22:13:11.811Z,698.00
2022-10-09T22:15:38.206Z,697.97
2022-10-09T22:18:04.634Z,700.13
2022-10-09T22:20:31.038Z,694.30
2022-10-09T22:22:57.504Z,699.43
2022-10-09T22:25:23.910Z,694.53
2022-10-09T22:27:50.338Z,693.27
